sensor_id;sensor_type;location;lat;lon;timestamp;P1;durP1;ratioP1;P2;durP2;ratioP2
72586;SDS011;60621;49.576;11.024;2023-04-06T00:00:13;7.50;;;3.50;;
72586;SDS011;60621;49.576;11.024;2023-04-06T00:01:15;7.13;;;3.50;;
72586;SDS011;60621;49.576;11.024;2023-04-06T00:02:17;7.40;;;3.80;;
72586;SDS011;60621;49.576;11.024;2023-04-06T00:03:18;7.00;;;3.53;;
72586;SDS011;60621;49.576;11.024;2023-04-06T00:04:20;7.85;;;3.55;;
72586;SDS011;60621;49.576;11.024;2023-04-06T00:05:22;8.38;;;3.80;;
72586;SDS011;60621;49.576;11.024;2023-04-06T00:06:24;7.03;;;3.75;;
72586;SDS011;60621;49.576;11.024;2023-04-06T00:07:25;9.02;;;3.50;;
72586;SDS011;60621;49.576;11.024;2023-04-06T00:08:27;8.35;;;3.75;;
72586;SDS011;60621;49.576;11.024;2023-04-06T00:09:28;7.22;;;3.42;;
72586;SDS011;60621;49.576;11.024;2023-04-06T00:10:30;9.15;;;3.72;;
72586;SDS011;60621;49.576;11.024;2023-04-06T00:11:31;7.38;;;3.60;;
72586;SDS011;60621;49.576;11.024;2023-04-06T00:12:33;7.13;;;3.78;;
72586;SDS011;60621;49.576;11.024;2023-04-06T00:13:34;6.80;;;3.80;;
72586;SDS011;60621;49.576;11.024;2023-04-06T00:14:36;7.18;;;3.63;;
72586;SDS011;60621;49.576;11.024;2023-04-06T00:15:38;7.28;;;3.70;;
72586;SDS011;60621;49.576;11.024;2023-04-06T00:16:39;9.05;;;4.38;;
72586;SDS011;60621;49.576;11.024;2023-04-06T00:17:41;7.82;;;3.85;;
72586;SDS011;60621;49.576;11.024;2023-04-06T00:18:42;7.05;;;4.10;;
72586;SDS011;60621;49.576;11.024;2023-04-06T00:19:44;7.90;;;3.58;;
72586;SDS011;60621;49.576;11.024;2023-04-06T00:20:45;7.20;;;3.42;;
72586;SDS011;60621;49.576;11.024;2023-04-06T00:21:47;9.10;;;3.97;;
72586;SDS011;60621;49.576;11.024;2023-04-06T00:22:49;10.27;;;4.05;;
72586;SDS011;60621;49.576;11.024;2023-04-06T00:23:50;7.80;;;4.10;;
72586;SDS011;60621;49.576;11.024;2023-04-06T00:24:52;8.15;;;3.90;;
72586;SDS011;60621;49.576;11.024;2023-04-06T00:25:53;6.82;;;3.83;;
72586;SDS011;60621;49.576;11.024;2023-04-06T00:26:55;8.50;;;3.72;;
72586;SDS011;60621;49.576;11.024;2023-04-06T00:27:57;8.02;;;3.65;;
72586;SDS011;60621;49.576;11.024;2023-04-06T00:28:58;7.22;;;3.65;;
72586;SDS011;60621;49.576;11.024;2023-04-06T00:30:00;9.55;;;3.70;;
72586;SDS011;60621;49.576;11.024;2023-04-06T00:31:02;6.70;;;3.38;;
72586;SDS011;60621;49.576;11.024;2023-04-06T00:32:04;6.10;;;3.53;;
72586;SDS011;60621;49.576;11.024;2023-04-06T00:33:05;7.72;;;3.80;;
72586;SDS011;60621;49.576;11.024;2023-04-06T00:34:10;6.43;;;3.45;;
72586;SDS011;60621;49.576;11.024;2023-04-06T00:35:11;7.00;;;3.50;;
72586;SDS011;60621;49.576;11.024;2023-04-06T00:36:13;7.72;;;3.80;;
72586;SDS011;60621;49.576;11.024;2023-04-06T00:37:14;7.47;;;3.90;;
72586;SDS011;60621;49.576;11.024;2023-04-06T00:38:16;7.35;;;3.75;;
72586;SDS011;60621;49.576;11.024;2023-04-06T00:39:18;7.68;;;3.90;;
72586;SDS011;60621;49.576;11.024;2023-04-06T00:41:22;9.02;;;3.72;;
72586;SDS011;60621;49.576;11.024;2023-04-06T00:42:24;6.85;;;3.45;;
72586;SDS011;60621;49.576;11.024;2023-04-06T00:43:28;7.03;;;3.53;;
72586;SDS011;60621;49.576;11.024;2023-04-06T00:44:30;8.82;;;3.80;;
72586;SDS011;60621;49.576;11.024;2023-04-06T00:45:33;9.15;;;3.60;;
72586;SDS011;60621;49.576;11.024;2023-04-06T00:46:34;8.73;;;3.75;;
72586;SDS011;60621;49.576;11.024;2023-04-06T00:47:36;6.72;;;3.20;;
72586;SDS011;60621;49.576;11.024;2023-04-06T00:48:38;7.68;;;3.72;;
72586;SDS011;60621;49.576;11.024;2023-04-06T00:49:40;6.15;;;3.40;;
72586;SDS011;60621;49.576;11.024;2023-04-06T00:50:42;8.55;;;3.38;;
72586;SDS011;60621;49.576;11.024;2023-04-06T00:51:43;7.35;;;4.05;;
72586;SDS011;60621;49.576;11.024;2023-04-06T00:52:45;7.40;;;3.42;;
72586;SDS011;60621;49.576;11.024;2023-04-06T00:53:47;8.35;;;3.55;;
72586;SDS011;60621;49.576;11.024;2023-04-06T00:54:49;11.05;;;4.00;;
72586;SDS011;60621;49.576;11.024;2023-04-06T00:55:52;7.18;;;3.60;;
72586;SDS011;60621;49.576;11.024;2023-04-06T00:56:53;7.93;;;3.78;;
72586;SDS011;60621;49.576;11.024;2023-04-06T00:57:55;8.05;;;3.67;;
72586;SDS011;60621;49.576;11.024;2023-04-06T00:58:59;7.82;;;3.42;;
72586;SDS011;60621;49.576;11.024;2023-04-06T01:00:01;7.13;;;3.60;;
72586;SDS011;60621;49.576;11.024;2023-04-06T01:01:03;7.90;;;3.65;;
72586;SDS011;60621;49.576;11.024;2023-04-06T01:02:04;14.40;;;4.63;;
72586;SDS011;60621;49.576;11.024;2023-04-06T01:03:06;8.85;;;3.90;;
72586;SDS011;60621;49.576;11.024;2023-04-06T01:04:08;7.63;;;3.58;;
72586;SDS011;60621;49.576;11.024;2023-04-06T01:05:10;7.40;;;3.58;;
72586;SDS011;60621;49.576;11.024;2023-04-06T01:06:12;7.35;;;3.67;;
72586;SDS011;60621;49.576;11.024;2023-04-06T01:07:13;7.57;;;3.58;;
72586;SDS011;60621;49.576;11.024;2023-04-06T01:08:15;7.45;;;3.65;;
72586;SDS011;60621;49.576;11.024;2023-04-06T01:09:17;7.13;;;3.50;;
72586;SDS011;60621;49.576;11.024;2023-04-06T01:10:22;6.57;;;3.50;;
72586;SDS011;60621;49.576;11.024;2023-04-06T01:11:25;8.82;;;3.95;;
72586;SDS011;60621;49.576;11.024;2023-04-06T01:12:27;7.47;;;3.85;;
72586;SDS011;60621;49.576;11.024;2023-04-06T01:13:28;7.55;;;4.00;;
72586;SDS011;60621;49.576;11.024;2023-04-06T01:14:30;8.60;;;3.53;;
72586;SDS011;60621;49.576;11.024;2023-04-06T01:15:32;7.25;;;3.47;;
72586;SDS011;60621;49.576;11.024;2023-04-06T01:16:36;8.18;;;3.53;;
72586;SDS011;60621;49.576;11.024;2023-04-06T01:17:38;6.93;;;3.20;;
72586;SDS011;60621;49.576;11.024;2023-04-06T01:18:39;6.30;;;3.22;;
72586;SDS011;60621;49.576;11.024;2023-04-06T01:19:41;8.45;;;3.45;;
72586;SDS011;60621;49.576;11.024;2023-04-06T01:20:42;7.93;;;3.42;;
72586;SDS011;60621;49.576;11.024;2023-04-06T01:21:44;8.38;;;3.45;;
72586;SDS011;60621;49.576;11.024;2023-04-06T01:22:45;8.88;;;3.60;;
72586;SDS011;60621;49.576;11.024;2023-04-06T01:23:47;7.75;;;3.30;;
72586;SDS011;60621;49.576;11.024;2023-04-06T01:24:48;7.70;;;3.60;;
72586;SDS011;60621;49.576;11.024;2023-04-06T01:25:50;7.25;;;3.63;;
72586;SDS011;60621;49.576;11.024;2023-04-06T01:26:51;7.00;;;3.63;;
72586;SDS011;60621;49.576;11.024;2023-04-06T01:27:52;7.50;;;3.42;;
72586;SDS011;60621;49.576;11.024;2023-04-06T01:28:54;6.80;;;3.28;;
72586;SDS011;60621;49.576;11.024;2023-04-06T01:29:56;7.60;;;3.35;;
72586;SDS011;60621;49.576;11.024;2023-04-06T01:30:57;7.47;;;3.50;;
72586;SDS011;60621;49.576;11.024;2023-04-06T01:31:59;6.10;;;3.05;;
72586;SDS011;60621;49.576;11.024;2023-04-06T01:33:01;7.45;;;3.65;;
72586;SDS011;60621;49.576;11.024;2023-04-06T01:34:02;6.13;;;3.38;;
72586;SDS011;60621;49.576;11.024;2023-04-06T01:35:04;7.00;;;3.30;;
72586;SDS011;60621;49.576;11.024;2023-04-06T01:36:06;7.57;;;3.15;;
72586;SDS011;60621;49.576;11.024;2023-04-06T01:37:08;8.05;;;3.63;;
72586;SDS011;60621;49.576;11.024;2023-04-06T01:38:09;8.63;;;3.40;;
72586;SDS011;60621;49.576;11.024;2023-04-06T01:39:11;8.00;;;3.83;;
72586;SDS011;60621;49.576;11.024;2023-04-06T01:40:12;7.10;;;3.20;;
72586;SDS011;60621;49.576;11.024;2023-04-06T01:41:14;7.75;;;3.58;;
72586;SDS011;60621;49.576;11.024;2023-04-06T01:42:16;8.48;;;3.25;;
72586;SDS011;60621;49.576;11.024;2023-04-06T01:43:18;7.97;;;3.58;;
72586;SDS011;60621;49.576;11.024;2023-04-06T01:44:19;6.60;;;3.40;;
72586;SDS011;60621;49.576;11.024;2023-04-06T01:45:21;7.90;;;3.20;;
72586;SDS011;60621;49.576;11.024;2023-04-06T01:46:22;7.68;;;3.30;;
72586;SDS011;60621;49.576;11.024;2023-04-06T01:47:24;8.07;;;3.10;;
72586;SDS011;60621;49.576;11.024;2023-04-06T01:48:26;7.13;;;3.50;;
72586;SDS011;60621;49.576;11.024;2023-04-06T01:49:28;7.72;;;3.45;;
72586;SDS011;60621;49.576;11.024;2023-04-06T01:50:29;6.05;;;2.97;;
72586;SDS011;60621;49.576;11.024;2023-04-06T01:51:31;8.35;;;3.03;;
72586;SDS011;60621;49.576;11.024;2023-04-06T01:52:32;6.47;;;3.10;;
72586;SDS011;60621;49.576;11.024;2023-04-06T01:53:34;8.15;;;3.38;;
72586;SDS011;60621;49.576;11.024;2023-04-06T01:54:36;6.18;;;3.22;;
72586;SDS011;60621;49.576;11.024;2023-04-06T01:55:37;6.05;;;3.28;;
72586;SDS011;60621;49.576;11.024;2023-04-06T01:56:39;7.25;;;3.38;;
72586;SDS011;60621;49.576;11.024;2023-04-06T01:57:41;6.65;;;3.38;;
72586;SDS011;60621;49.576;11.024;2023-04-06T01:58:43;6.18;;;3.30;;
72586;SDS011;60621;49.576;11.024;2023-04-06T01:59:44;6.55;;;3.47;;
72586;SDS011;60621;49.576;11.024;2023-04-06T02:00:46;7.70;;;3.40;;
72586;SDS011;60621;49.576;11.024;2023-04-06T02:01:47;8.23;;;3.35;;
72586;SDS011;60621;49.576;11.024;2023-04-06T02:02:49;6.90;;;3.53;;
72586;SDS011;60621;49.576;11.024;2023-04-06T02:03:51;6.93;;;3.47;;
72586;SDS011;60621;49.576;11.024;2023-04-06T02:04:53;7.35;;;3.33;;
72586;SDS011;60621;49.576;11.024;2023-04-06T02:05:54;9.50;;;3.45;;
72586;SDS011;60621;49.576;11.024;2023-04-06T02:06:56;6.18;;;3.17;;
72586;SDS011;60621;49.576;11.024;2023-04-06T02:07:57;6.75;;;3.50;;
72586;SDS011;60621;49.576;11.024;2023-04-06T02:08:59;6.93;;;3.40;;
72586;SDS011;60621;49.576;11.024;2023-04-06T02:10:01;8.55;;;3.63;;
72586;SDS011;60621;49.576;11.024;2023-04-06T02:11:03;8.80;;;3.50;;
72586;SDS011;60621;49.576;11.024;2023-04-06T02:12:05;7.35;;;3.60;;
72586;SDS011;60621;49.576;11.024;2023-04-06T02:13:07;7.32;;;3.75;;
72586;SDS011;60621;49.576;11.024;2023-04-06T02:14:08;6.80;;;3.38;;
72586;SDS011;60621;49.576;11.024;2023-04-06T02:15:10;6.80;;;3.50;;
72586;SDS011;60621;49.576;11.024;2023-04-06T02:16:11;6.22;;;3.33;;
72586;SDS011;60621;49.576;11.024;2023-04-06T02:17:13;7.72;;;3.80;;
72586;SDS011;60621;49.576;11.024;2023-04-06T02:18:14;6.90;;;3.60;;
72586;SDS011;60621;49.576;11.024;2023-04-06T02:19:18;7.05;;;3.85;;
72586;SDS011;60621;49.576;11.024;2023-04-06T02:20:20;7.97;;;3.90;;
72586;SDS011;60621;49.576;11.024;2023-04-06T02:21:22;6.90;;;3.78;;
72586;SDS011;60621;49.576;11.024;2023-04-06T02:22:23;7.20;;;3.63;;
72586;SDS011;60621;49.576;11.024;2023-04-06T02:23:25;7.45;;;3.78;;
72586;SDS011;60621;49.576;11.024;2023-04-06T02:24:27;7.10;;;3.65;;
72586;SDS011;60621;49.576;11.024;2023-04-06T02:25:28;7.45;;;3.75;;
72586;SDS011;60621;49.576;11.024;2023-04-06T02:26:30;8.23;;;3.58;;
72586;SDS011;60621;49.576;11.024;2023-04-06T02:27:31;6.72;;;3.70;;
72586;SDS011;60621;49.576;11.024;2023-04-06T02:28:33;7.97;;;4.18;;
72586;SDS011;60621;49.576;11.024;2023-04-06T02:29:34;8.48;;;3.58;;
72586;SDS011;60621;49.576;11.024;2023-04-06T02:30:36;7.38;;;3.30;;
72586;SDS011;60621;49.576;11.024;2023-04-06T02:31:37;7.63;;;3.60;;
72586;SDS011;60621;49.576;11.024;2023-04-06T02:32:39;10.68;;;3.80;;
72586;SDS011;60621;49.576;11.024;2023-04-06T02:33:41;6.95;;;3.53;;
72586;SDS011;60621;49.576;11.024;2023-04-06T02:34:42;9.23;;;4.00;;
72586;SDS011;60621;49.576;11.024;2023-04-06T02:35:44;7.65;;;3.75;;
72586;SDS011;60621;49.576;11.024;2023-04-06T02:36:46;7.82;;;3.70;;
72586;SDS011;60621;49.576;11.024;2023-04-06T02:37:48;8.55;;;3.60;;
72586;SDS011;60621;49.576;11.024;2023-04-06T02:38:49;6.45;;;3.33;;
72586;SDS011;60621;49.576;11.024;2023-04-06T02:39:51;6.63;;;3.13;;
72586;SDS011;60621;49.576;11.024;2023-04-06T02:40:53;6.50;;;3.55;;
72586;SDS011;60621;49.576;11.024;2023-04-06T02:41:54;6.47;;;3.40;;
72586;SDS011;60621;49.576;11.024;2023-04-06T02:42:57;7.95;;;3.80;;
72586;SDS011;60621;49.576;11.024;2023-04-06T02:43:58;7.95;;;3.63;;
72586;SDS011;60621;49.576;11.024;2023-04-06T02:45:00;7.03;;;3.60;;
72586;SDS011;60621;49.576;11.024;2023-04-06T02:46:01;6.43;;;3.20;;
72586;SDS011;60621;49.576;11.024;2023-04-06T02:47:03;7.22;;;3.38;;
72586;SDS011;60621;49.576;11.024;2023-04-06T02:48:04;7.38;;;3.40;;
72586;SDS011;60621;49.576;11.024;2023-04-06T02:49:06;8.73;;;3.58;;
72586;SDS011;60621;49.576;11.024;2023-04-06T02:50:08;6.50;;;3.20;;
72586;SDS011;60621;49.576;11.024;2023-04-06T02:51:10;8.10;;;3.97;;
72586;SDS011;60621;49.576;11.024;2023-04-06T02:52:12;7.75;;;3.50;;
72586;SDS011;60621;49.576;11.024;2023-04-06T02:53:13;7.53;;;3.53;;
72586;SDS011;60621;49.576;11.024;2023-04-06T02:54:15;6.03;;;3.20;;
72586;SDS011;60621;49.576;11.024;2023-04-06T02:55:16;7.28;;;3.67;;
72586;SDS011;60621;49.576;11.024;2023-04-06T02:56:20;8.35;;;3.67;;
72586;SDS011;60621;49.576;11.024;2023-04-06T02:57:22;7.40;;;3.42;;
72586;SDS011;60621;49.576;11.024;2023-04-06T02:58:24;6.30;;;3.42;;
72586;SDS011;60621;49.576;11.024;2023-04-06T02:59:25;7.60;;;3.40;;
72586;SDS011;60621;49.576;11.024;2023-04-06T03:00:27;7.50;;;3.22;;
72586;SDS011;60621;49.576;11.024;2023-04-06T03:01:28;7.25;;;3.20;;
72586;SDS011;60621;49.576;11.024;2023-04-06T03:02:30;7.45;;;3.20;;
72586;SDS011;60621;49.576;11.024;2023-04-06T03:03:32;9.10;;;3.92;;
72586;SDS011;60621;49.576;11.024;2023-04-06T03:04:33;8.77;;;3.58;;
72586;SDS011;60621;49.576;11.024;2023-04-06T03:05:35;8.02;;;3.45;;
72586;SDS011;60621;49.576;11.024;2023-04-06T03:06:36;8.55;;;3.85;;
72586;SDS011;60621;49.576;11.024;2023-04-06T03:07:38;7.05;;;3.70;;
72586;SDS011;60621;49.576;11.024;2023-04-06T03:08:40;7.10;;;3.50;;
72586;SDS011;60621;49.576;11.024;2023-04-06T03:09:41;6.95;;;3.50;;
72586;SDS011;60621;49.576;11.024;2023-04-06T03:10:43;7.80;;;3.30;;
72586;SDS011;60621;49.576;11.024;2023-04-06T03:11:44;7.53;;;3.67;;
72586;SDS011;60621;49.576;11.024;2023-04-06T03:12:46;7.25;;;3.58;;
72586;SDS011;60621;49.576;11.024;2023-04-06T03:13:47;6.32;;;3.33;;
72586;SDS011;60621;49.576;11.024;2023-04-06T03:14:49;8.57;;;3.53;;
72586;SDS011;60621;49.576;11.024;2023-04-06T03:15:50;7.28;;;3.60;;
72586;SDS011;60621;49.576;11.024;2023-04-06T03:16:52;7.78;;;3.50;;
72586;SDS011;60621;49.576;11.024;2023-04-06T03:17:53;8.15;;;3.95;;
72586;SDS011;60621;49.576;11.024;2023-04-06T03:18:56;7.40;;;3.78;;
72586;SDS011;60621;49.576;11.024;2023-04-06T03:19:59;8.20;;;3.80;;
72586;SDS011;60621;49.576;11.024;2023-04-06T03:21:01;8.75;;;3.95;;
72586;SDS011;60621;49.576;11.024;2023-04-06T03:22:02;9.45;;;3.90;;
72586;SDS011;60621;49.576;11.024;2023-04-06T03:23:04;8.90;;;3.80;;
72586;SDS011;60621;49.576;11.024;2023-04-06T03:24:05;6.57;;;3.50;;
72586;SDS011;60621;49.576;11.024;2023-04-06T03:25:07;7.65;;;3.95;;
72586;SDS011;60621;49.576;11.024;2023-04-06T03:26:09;6.93;;;3.50;;
72586;SDS011;60621;49.576;11.024;2023-04-06T03:27:11;8.13;;;3.70;;
72586;SDS011;60621;49.576;11.024;2023-04-06T03:28:13;6.90;;;3.35;;
72586;SDS011;60621;49.576;11.024;2023-04-06T03:29:14;6.55;;;3.65;;
72586;SDS011;60621;49.576;11.024;2023-04-06T03:30:16;6.82;;;3.47;;
72586;SDS011;60621;49.576;11.024;2023-04-06T03:31:21;8.10;;;3.45;;
72586;SDS011;60621;49.576;11.024;2023-04-06T03:32:22;8.52;;;3.92;;
72586;SDS011;60621;49.576;11.024;2023-04-06T03:33:24;6.43;;;3.60;;
72586;SDS011;60621;49.576;11.024;2023-04-06T03:34:28;7.35;;;3.70;;
72586;SDS011;60621;49.576;11.024;2023-04-06T03:35:29;8.05;;;3.58;;
72586;SDS011;60621;49.576;11.024;2023-04-06T03:36:31;6.90;;;3.60;;
72586;SDS011;60621;49.576;11.024;2023-04-06T03:37:32;6.47;;;3.47;;
72586;SDS011;60621;49.576;11.024;2023-04-06T03:38:34;6.50;;;3.80;;
72586;SDS011;60621;49.576;11.024;2023-04-06T03:39:35;8.00;;;3.60;;
72586;SDS011;60621;49.576;11.024;2023-04-06T03:40:37;7.85;;;3.55;;
72586;SDS011;60621;49.576;11.024;2023-04-06T03:41:38;6.47;;;3.58;;
72586;SDS011;60621;49.576;11.024;2023-04-06T03:42:40;6.95;;;3.38;;
72586;SDS011;60621;49.576;11.024;2023-04-06T03:43:41;8.07;;;3.50;;
72586;SDS011;60621;49.576;11.024;2023-04-06T03:44:43;7.93;;;3.60;;
72586;SDS011;60621;49.576;11.024;2023-04-06T03:45:44;6.65;;;3.53;;
72586;SDS011;60621;49.576;11.024;2023-04-06T03:46:46;8.25;;;3.92;;
72586;SDS011;60621;49.576;11.024;2023-04-06T03:47:47;7.07;;;3.53;;
72586;SDS011;60621;49.576;11.024;2023-04-06T03:48:49;7.35;;;3.50;;
72586;SDS011;60621;49.576;11.024;2023-04-06T03:49:50;6.85;;;3.65;;
72586;SDS011;60621;49.576;11.024;2023-04-06T03:50:52;8.07;;;3.85;;
72586;SDS011;60621;49.576;11.024;2023-04-06T03:51:53;7.82;;;3.70;;
72586;SDS011;60621;49.576;11.024;2023-04-06T03:52:55;6.72;;;3.30;;
72586;SDS011;60621;49.576;11.024;2023-04-06T03:53:56;6.10;;;3.40;;
72586;SDS011;60621;49.576;11.024;2023-04-06T03:54:58;8.05;;;3.58;;
72586;SDS011;60621;49.576;11.024;2023-04-06T03:55:59;7.63;;;3.58;;
72586;SDS011;60621;49.576;11.024;2023-04-06T03:57:04;6.40;;;3.33;;
72586;SDS011;60621;49.576;11.024;2023-04-06T03:58:06;9.45;;;3.53;;
72586;SDS011;60621;49.576;11.024;2023-04-06T03:59:07;7.47;;;3.10;;
72586;SDS011;60621;49.576;11.024;2023-04-06T04:00:09;8.13;;;3.70;;
72586;SDS011;60621;49.576;11.024;2023-04-06T04:01:11;7.80;;;3.40;;
72586;SDS011;60621;49.576;11.024;2023-04-06T04:02:13;7.40;;;3.92;;
72586;SDS011;60621;49.576;11.024;2023-04-06T04:03:14;6.65;;;3.40;;
72586;SDS011;60621;49.576;11.024;2023-04-06T04:04:16;6.25;;;3.38;;
72586;SDS011;60621;49.576;11.024;2023-04-06T04:05:18;7.28;;;3.60;;
72586;SDS011;60621;49.576;11.024;2023-04-06T04:06:19;7.28;;;3.55;;
72586;SDS011;60621;49.576;11.024;2023-04-06T04:07:21;7.85;;;3.08;;
72586;SDS011;60621;49.576;11.024;2023-04-06T04:08:23;7.32;;;3.67;;
72586;SDS011;60621;49.576;11.024;2023-04-06T04:09:26;6.72;;;3.38;;
72586;SDS011;60621;49.576;11.024;2023-04-06T04:10:30;9.32;;;4.50;;
72586;SDS011;60621;49.576;11.024;2023-04-06T04:11:31;8.07;;;3.47;;
72586;SDS011;60621;49.576;11.024;2023-04-06T04:12:33;6.80;;;3.30;;
72586;SDS011;60621;49.576;11.024;2023-04-06T04:13:34;9.40;;;3.70;;
72586;SDS011;60621;49.576;11.024;2023-04-06T04:14:36;6.60;;;3.50;;
72586;SDS011;60621;49.576;11.024;2023-04-06T04:15:37;7.82;;;3.72;;
72586;SDS011;60621;49.576;11.024;2023-04-06T04:16:39;8.05;;;3.70;;
72586;SDS011;60621;49.576;11.024;2023-04-06T04:17:40;7.10;;;3.72;;
72586;SDS011;60621;49.576;11.024;2023-04-06T04:18:44;9.60;;;3.70;;
72586;SDS011;60621;49.576;11.024;2023-04-06T04:19:48;6.45;;;3.70;;
72586;SDS011;60621;49.576;11.024;2023-04-06T04:20:49;7.85;;;3.85;;
72586;SDS011;60621;49.576;11.024;2023-04-06T04:21:51;5.88;;;3.50;;
72586;SDS011;60621;49.576;11.024;2023-04-06T04:22:52;6.72;;;3.70;;
72586;SDS011;60621;49.576;11.024;2023-04-06T04:23:54;7.13;;;3.60;;
72586;SDS011;60621;49.576;11.024;2023-04-06T04:24:55;6.78;;;3.42;;
72586;SDS011;60621;49.576;11.024;2023-04-06T04:25:57;7.40;;;3.60;;
72586;SDS011;60621;49.576;11.024;2023-04-06T04:26:59;7.68;;;3.90;;
72586;SDS011;60621;49.576;11.024;2023-04-06T04:28:02;9.05;;;4.05;;
72586;SDS011;60621;49.576;11.024;2023-04-06T04:29:03;6.28;;;3.60;;
72586;SDS011;60621;49.576;11.024;2023-04-06T04:30:05;6.55;;;3.50;;
72586;SDS011;60621;49.576;11.024;2023-04-06T04:31:07;8.68;;;4.30;;
72586;SDS011;60621;49.576;11.024;2023-04-06T04:32:09;8.15;;;3.80;;
72586;SDS011;60621;49.576;11.024;2023-04-06T04:33:10;7.57;;;3.85;;
72586;SDS011;60621;49.576;11.024;2023-04-06T04:34:12;9.05;;;4.00;;
72586;SDS011;60621;49.576;11.024;2023-04-06T04:35:13;8.02;;;3.85;;
72586;SDS011;60621;49.576;11.024;2023-04-06T04:36:15;7.20;;;3.50;;
72586;SDS011;60621;49.576;11.024;2023-04-06T04:37:16;8.25;;;3.80;;
72586;SDS011;60621;49.576;11.024;2023-04-06T04:38:18;8.00;;;3.75;;
72586;SDS011;60621;49.576;11.024;2023-04-06T04:39:19;7.88;;;3.97;;
72586;SDS011;60621;49.576;11.024;2023-04-06T04:40:21;7.72;;;3.45;;
72586;SDS011;60621;49.576;11.024;2023-04-06T04:41:23;8.52;;;3.72;;
72586;SDS011;60621;49.576;11.024;2023-04-06T04:42:24;8.82;;;4.07;;
72586;SDS011;60621;49.576;11.024;2023-04-06T04:43:26;7.30;;;3.60;;
72586;SDS011;60621;49.576;11.024;2023-04-06T04:44:27;9.82;;;3.95;;
72586;SDS011;60621;49.576;11.024;2023-04-06T04:45:29;7.65;;;4.00;;
72586;SDS011;60621;49.576;11.024;2023-04-06T04:46:31;7.65;;;4.30;;
72586;SDS011;60621;49.576;11.024;2023-04-06T04:47:32;27.08;;;13.32;;
72586;SDS011;60621;49.576;11.024;2023-04-06T04:48:34;65.53;;;29.48;;
72586;SDS011;60621;49.576;11.024;2023-04-06T04:49:35;32.72;;;15.52;;
72586;SDS011;60621;49.576;11.024;2023-04-06T04:50:37;70.32;;;28.35;;
72586;SDS011;60621;49.576;11.024;2023-04-06T04:51:39;43.88;;;16.75;;
72586;SDS011;60621;49.576;11.024;2023-04-06T04:52:40;19.67;;;8.85;;
72586;SDS011;60621;49.576;11.024;2023-04-06T04:53:42;18.42;;;8.13;;
72586;SDS011;60621;49.576;11.024;2023-04-06T04:54:43;10.55;;;5.55;;
72586;SDS011;60621;49.576;11.024;2023-04-06T04:55:45;11.75;;;5.28;;
72586;SDS011;60621;49.576;11.024;2023-04-06T04:56:46;10.77;;;4.47;;
72586;SDS011;60621;49.576;11.024;2023-04-06T04:57:48;7.57;;;4.00;;
72586;SDS011;60621;49.576;11.024;2023-04-06T04:58:49;7.95;;;3.88;;
72586;SDS011;60621;49.576;11.024;2023-04-06T04:59:52;8.57;;;4.18;;
72586;SDS011;60621;49.576;11.024;2023-04-06T05:00:54;8.82;;;3.92;;
72586;SDS011;60621;49.576;11.024;2023-04-06T05:01:56;8.98;;;3.90;;
72586;SDS011;60621;49.576;11.024;2023-04-06T05:02:58;9.35;;;3.80;;
72586;SDS011;60621;49.576;11.024;2023-04-06T05:03:59;8.25;;;4.10;;
72586;SDS011;60621;49.576;11.024;2023-04-06T05:05:01;8.57;;;4.38;;
72586;SDS011;60621;49.576;11.024;2023-04-06T05:06:02;9.07;;;3.40;;
72586;SDS011;60621;49.576;11.024;2023-04-06T05:07:08;8.82;;;3.90;;
72586;SDS011;60621;49.576;11.024;2023-04-06T05:08:11;8.35;;;3.70;;
72586;SDS011;60621;49.576;11.024;2023-04-06T05:09:13;8.02;;;4.05;;
72586;SDS011;60621;49.576;11.024;2023-04-06T05:10:14;10.68;;;4.03;;
72586;SDS011;60621;49.576;11.024;2023-04-06T05:11:16;6.53;;;3.72;;
72586;SDS011;60621;49.576;11.024;2023-04-06T05:12:18;8.15;;;3.95;;
72586;SDS011;60621;49.576;11.024;2023-04-06T05:13:20;9.88;;;4.80;;
72586;SDS011;60621;49.576;11.024;2023-04-06T05:14:21;8.25;;;3.83;;
72586;SDS011;60621;49.576;11.024;2023-04-06T05:15:23;8.27;;;4.18;;
72586;SDS011;60621;49.576;11.024;2023-04-06T05:16:25;9.30;;;3.85;;
72586;SDS011;60621;49.576;11.024;2023-04-06T05:17:27;9.38;;;4.40;;
72586;SDS011;60621;49.576;11.024;2023-04-06T05:18:29;9.07;;;3.70;;
72586;SDS011;60621;49.576;11.024;2023-04-06T05:19:30;7.70;;;3.58;;
72586;SDS011;60621;49.576;11.024;2023-04-06T05:20:32;6.85;;;3.70;;
72586;SDS011;60621;49.576;11.024;2023-04-06T05:21:34;9.48;;;4.05;;
72586;SDS011;60621;49.576;11.024;2023-04-06T05:22:36;7.63;;;4.05;;
72586;SDS011;60621;49.576;11.024;2023-04-06T05:23:37;8.00;;;3.80;;
72586;SDS011;60621;49.576;11.024;2023-04-06T05:24:38;7.50;;;4.18;;
72586;SDS011;60621;49.576;11.024;2023-04-06T05:25:41;8.73;;;3.80;;
72586;SDS011;60621;49.576;11.024;2023-04-06T05:26:43;8.35;;;4.18;;
72586;SDS011;60621;49.576;11.024;2023-04-06T05:27:44;7.72;;;3.92;;
72586;SDS011;60621;49.576;11.024;2023-04-06T05:28:46;8.02;;;3.90;;
72586;SDS011;60621;49.576;11.024;2023-04-06T05:29:48;9.80;;;4.47;;
72586;SDS011;60621;49.576;11.024;2023-04-06T05:30:50;8.02;;;3.80;;
72586;SDS011;60621;49.576;11.024;2023-04-06T05:31:52;9.55;;;4.07;;
72586;SDS011;60621;49.576;11.024;2023-04-06T05:32:53;9.27;;;4.18;;
72586;SDS011;60621;49.576;11.024;2023-04-06T05:33:56;8.43;;;4.20;;
72586;SDS011;60621;49.576;11.024;2023-04-06T05:34:58;8.43;;;4.10;;
72586;SDS011;60621;49.576;11.024;2023-04-06T05:35:59;7.82;;;3.95;;
72586;SDS011;60621;49.576;11.024;2023-04-06T05:37:02;8.50;;;4.00;;
72586;SDS011;60621;49.576;11.024;2023-04-06T05:38:05;7.75;;;3.95;;
72586;SDS011;60621;49.576;11.024;2023-04-06T05:39:08;8.18;;;4.10;;
72586;SDS011;60621;49.576;11.024;2023-04-06T05:40:10;8.98;;;4.10;;
72586;SDS011;60621;49.576;11.024;2023-04-06T05:41:12;10.80;;;4.25;;
72586;SDS011;60621;49.576;11.024;2023-04-06T05:42:14;9.20;;;4.00;;
72586;SDS011;60621;49.576;11.024;2023-04-06T05:43:16;11.27;;;4.00;;
72586;SDS011;60621;49.576;11.024;2023-04-06T05:44:17;9.55;;;4.70;;
72586;SDS011;60621;49.576;11.024;2023-04-06T05:45:19;8.98;;;4.47;;
72586;SDS011;60621;49.576;11.024;2023-04-06T05:46:22;11.93;;;4.43;;
72586;SDS011;60621;49.576;11.024;2023-04-06T05:47:24;9.32;;;3.97;;
72586;SDS011;60621;49.576;11.024;2023-04-06T05:48:25;10.25;;;4.40;;
72586;SDS011;60621;49.576;11.024;2023-04-06T05:49:27;10.10;;;4.47;;
72586;SDS011;60621;49.576;11.024;2023-04-06T05:50:28;9.77;;;4.13;;
72586;SDS011;60621;49.576;11.024;2023-04-06T05:51:30;10.25;;;4.47;;
72586;SDS011;60621;49.576;11.024;2023-04-06T05:52:32;7.63;;;3.95;;
72586;SDS011;60621;49.576;11.024;2023-04-06T05:53:34;11.48;;;5.22;;
72586;SDS011;60621;49.576;11.024;2023-04-06T05:54:36;8.70;;;4.22;;
72586;SDS011;60621;49.576;11.024;2023-04-06T05:55:38;8.52;;;3.97;;
72586;SDS011;60621;49.576;11.024;2023-04-06T05:56:39;7.82;;;3.90;;
72586;SDS011;60621;49.576;11.024;2023-04-06T05:57:41;11.30;;;4.22;;
72586;SDS011;60621;49.576;11.024;2023-04-06T05:58:42;7.82;;;4.00;;
72586;SDS011;60621;49.576;11.024;2023-04-06T05:59:43;10.70;;;4.10;;
72586;SDS011;60621;49.576;11.024;2023-04-06T06:00:45;8.65;;;4.10;;
72586;SDS011;60621;49.576;11.024;2023-04-06T06:01:47;9.05;;;4.00;;
72586;SDS011;60621;49.576;11.024;2023-04-06T06:02:48;9.45;;;4.35;;
72586;SDS011;60621;49.576;11.024;2023-04-06T06:03:50;10.88;;;4.68;;
72586;SDS011;60621;49.576;11.024;2023-04-06T06:04:51;17.13;;;5.00;;
72586;SDS011;60621;49.576;11.024;2023-04-06T06:05:53;11.25;;;4.75;;
72586;SDS011;60621;49.576;11.024;2023-04-06T06:06:56;11.90;;;4.70;;